Time;durP1;ratioP1;P1;durP2;ratioP2;P2;SDS_P1;SDS_P2;PMS_P1;PMS_P2;Temp;Humidity;BMP_temperature;BMP_pressure;BME280_temperature;BME280_humidity;BME280_pressure;Samples;Min_cycle;Max_cycle;Signal;HPM_P1;HPM_P2
2023/06/03 00:00:40;;;;;;;5.10;3.30;;;15.20;65.60;;;;;;5052053;28;20490;-75
2023/06/03 00:03:08;;;;;;;6.68;3.50;;;15.10;65.90;;;;;;5051527;28;20776;-75
2023/06/03 00:05:35;;;;;;;4.90;3.17;;;15.10;65.70;;;;;;5046581;28;20435;-74
2023/06/03 00:08:01;;;;;;;4.57;3.10;;;15.10;65.90;;;;;;5055367;28;20408;-76
2023/06/03 00:10:28;;;;;;;5.43;3.45;;;15.00;66.00;;;;;;5059163;28;20424;-76
2023/06/03 00:12:55;;;;;;;4.07;3.40;;;15.00;66.10;;;;;;5052732;28;20429;-76
2023/06/03 00:15:22;;;;;;;5.90;3.78;;;15.00;66.10;;;;;;5053025;28;20872;-77
2023/06/03 00:17:50;;;;;;;4.28;3.70;;;15.00;66.30;;;;;;5050404;28;20432;-77
2023/06/03 00:20:17;;;;;;;4.25;3.70;;;15.00;66.60;;;;;;5046476;28;20417;-75
2023/06/03 00:22:45;;;;;;;5.00;3.30;;;15.00;66.60;;;;;;5052951;28;20489;-75
2023/06/03 00:25:12;;;;;;;5.50;3.17;;;15.00;66.90;;;;;;5052372;28;20425;-75
2023/06/03 00:27:39;;;;;;;4.75;3.20;;;14.90;66.80;;;;;;5052898;28;20417;-75
2023/06/03 00:30:07;;;;;;;4.90;3.40;;;14.90;67.00;;;;;;5051509;28;20425;-75
2023/06/03 00:32:35;;;;;;;6.95;3.30;;;14.90;67.60;;;;;;5051093;28;20432;-76
2023/06/03 00:35:03;;;;;;;5.18;3.00;;;14.80;67.50;;;;;;5050705;28;20425;-76
2023/06/03 00:37:30;;;;;;;5.15;3.00;;;14.80;67.70;;;;;;5051835;28;20449;-75
2023/06/03 00:39:56;;;;;;;3.95;2.80;;;14.80;67.50;;;;;;5051697;28;20575;-74
2023/06/03 00:42:23;;;;;;;5.30;3.17;;;14.80;68.10;;;;;;5056870;28;20409;-77
2023/06/03 00:44:50;;;;;;;5.30;3.47;;;14.80;67.90;;;;;;5057582;28;20413;-75
2023/06/03 00:47:20;;;;;;;6.53;3.40;;;14.70;67.90;;;;;;5054063;28;20433;-74
2023/06/03 00:49:47;;;;;;;3.00;2.70;;;14.70;67.90;;;;;;5055979;28;20440;-75
2023/06/03 00:52:16;;;;;;;4.00;2.88;;;14.70;68.00;;;;;;5059919;28;20425;-76
2023/06/03 00:54:43;;;;;;;6.13;2.90;;;14.70;68.30;;;;;;5063441;28;20417;-75
2023/06/03 00:57:10;;;;;;;4.35;3.10;;;14.60;68.50;;;;;;5062977;28;20433;-76
2023/06/03 00:59:37;;;;;;;5.07;3.00;;;14.60;68.60;;;;;;5059447;28;20830;-77
2023/06/03 01:02:04;;;;;;;4.70;2.80;;;14.60;68.90;;;;;;5051963;28;20505;-76
2023/06/03 01:04:31;;;;;;;4.30;3.20;;;14.60;68.90;;;;;;5050718;28;20476;-77
2023/06/03 01:07:11;;;;;;;4.03;3.00;;;14.60;69.20;;;;;;5052354;28;20417;-75
2023/06/03 01:09:49;;;;;;;4.68;3.60;;;14.50;69.50;;;;;;5074081;28;20436;-75
2023/06/03 01:12:25;;;;;;;4.20;3.40;;;14.50;70.20;;;;;;5052254;28;20799;-76
2023/06/03 01:14:55;;;;;;;5.57;3.45;;;14.50;70.60;;;;;;5051817;28;20428;-75
2023/06/03 01:17:27;;;;;;;6.67;3.60;;;14.50;71.20;;;;;;5049832;28;20506;-76
2023/06/03 01:19:56;;;;;;;5.10;3.50;;;14.40;71.70;;;;;;5050393;28;20425;-74
2023/06/03 01:22:26;;;;;;;4.90;3.30;;;14.50;72.10;;;;;;5050680;28;20929;-75
2023/06/03 01:25:04;;;;;;;3.92;3.25;;;14.50;72.40;;;;;;5050646;28;20423;-76
2023/06/03 01:27:31;;;;;;;6.05;3.30;;;14.40;72.50;;;;;;5050995;28;20975;-76
2023/06/03 01:29:58;;;;;;;5.50;3.50;;;14.40;72.40;;;;;;5050391;28;20421;-75
2023/06/03 01:32:26;;;;;;;4.22;3.20;;;14.30;72.80;;;;;;5049486;28;20440;-76
2023/06/03 01:34:53;;;;;;;4.90;3.50;;;14.30;73.30;;;;;;5050482;28;20417;-76
2023/06/03 01:37:21;;;;;;;5.53;3.70;;;14.30;73.90;;;;;;5044813;28;20433;-75
2023/06/03 01:39:48;;;;;;;4.28;3.15;;;14.30;73.70;;;;;;5049780;28;20413;-75
2023/06/03 01:42:16;;;;;;;4.50;3.40;;;14.30;73.60;;;;;;5050380;28;20892;-74
2023/06/03 01:44:43;;;;;;;5.43;3.40;;;14.20;73.60;;;;;;5050724;28;20424;-74
2023/06/03 01:47:10;;;;;;;4.80;3.30;;;14.20;74.00;;;;;;5041407;28;20433;-75
2023/06/03 01:49:37;;;;;;;4.43;3.20;;;14.20;73.70;;;;;;5049460;28;20413;-75
2023/06/03 01:52:04;;;;;;;5.68;3.00;;;14.20;74.00;;;;;;5049890;28;20505;-76
2023/06/03 01:54:31;;;;;;;4.60;3.20;;;14.20;74.20;;;;;;5050466;28;20417;-76
2023/06/03 01:56:58;;;;;;;5.68;3.40;;;14.20;74.30;;;;;;5050690;28;20486;-76
2023/06/03 01:59:26;;;;;;;5.90;3.47;;;14.20;74.60;;;;;;5040135;28;20429;-77
2023/06/03 02:01:54;;;;;;;4.30;3.22;;;14.10;74.20;;;;;;5048677;28;20435;-76
2023/06/03 02:04:21;;;;;;;4.63;3.30;;;14.10;74.30;;;;;;5049585;28;20528;-77
2023/06/03 02:06:50;;;;;;;5.18;3.65;;;14.10;74.30;;;;;;5049944;28;20421;-78
2023/06/03 02:09:17;;;;;;;4.93;3.45;;;14.10;74.30;;;;;;5059207;28;20473;-77
2023/06/03 02:11:44;;;;;;;5.03;3.58;;;14.00;74.60;;;;;;5049784;28;20421;-75
2023/06/03 02:14:11;;;;;;;4.53;3.10;;;14.00;74.60;;;;;;5048258;28;20429;-75
2023/06/03 02:16:41;;;;;;;5.30;3.80;;;14.00;74.50;;;;;;5043154;28;20466;-76
2023/06/03 02:19:12;;;;;;;7.00;3.40;;;14.00;74.30;;;;;;5046387;28;20448;-74
2023/06/03 02:21:39;;;;;;;5.82;3.50;;;13.90;73.80;;;;;;5049206;28;20929;-76
2023/06/03 02:24:07;;;;;;;4.43;3.30;;;13.90;74.10;;;;;;5049511;28;21161;-75
2023/06/03 02:26:34;;;;;;;3.87;3.17;;;13.90;74.20;;;;;;5049690;28;20899;-76
2023/06/03 02:29:01;;;;;;;4.27;3.37;;;13.90;73.60;;;;;;5048162;28;20437;-76
2023/06/03 02:31:28;;;;;;;4.05;3.00;;;13.90;73.50;;;;;;5049702;28;20417;-75
2023/06/03 02:33:56;;;;;;;4.80;3.00;;;13.90;73.10;;;;;;5049525;28;20432;-75
2023/06/03 02:36:22;;;;;;;4.13;2.90;;;13.80;73.40;;;;;;5049435;28;20421;-76
2023/06/03 02:38:49;;;;;;;4.10;3.10;;;13.90;73.50;;;;;;5048873;28;20425;-74
2023/06/03 02:41:16;;;;;;;3.97;3.30;;;13.80;72.90;;;;;;5049748;28;20791;-76
2023/06/03 02:43:43;;;;;;;5.68;2.97;;;13.80;73.20;;;;;;5036300;28;20401;-75
2023/06/03 02:46:10;;;;;;;4.13;3.05;;;13.80;72.80;;;;;;5048003;28;20424;-77
2023/06/03 02:48:37;;;;;;;5.43;3.15;;;13.70;73.00;;;;;;5049361;28;20413;-75
2023/06/03 02:51:05;;;;;;;5.10;2.80;;;13.70;73.20;;;;;;5048091;28;20441;-75
2023/06/03 02:53:32;;;;;;;4.80;2.90;;;13.70;72.90;;;;;;5049089;28;20429;-75
2023/06/03 02:55:58;;;;;;;3.65;2.90;;;13.70;72.40;;;;;;5056455;28;20406;-75
2023/06/03 02:58:25;;;;;;;4.07;3.00;;;13.70;72.10;;;;;;5051244;28;20422;-75
2023/06/03 03:00:52;;;;;;;3.35;2.55;;;13.70;72.30;;;;;;5047640;28;20424;-75
2023/06/03 03:03:19;;;;;;;5.63;3.08;;;13.60;72.00;;;;;;5045644;28;20448;-75
2023/06/03 03:05:46;;;;;;;5.03;2.80;;;13.60;71.80;;;;;;5048810;28;20447;-75
2023/06/03 03:08:14;;;;;;;3.50;2.72;;;13.60;71.60;;;;;;5048758;28;20423;-75
2023/06/03 03:10:41;;;;;;;4.45;2.78;;;13.60;71.60;;;;;;5048727;28;20985;-75
2023/06/03 03:13:08;;;;;;;5.35;2.97;;;13.60;70.90;;;;;;5048502;28;20428;-74
2023/06/03 03:15:35;;;;;;;3.67;2.80;;;13.50;70.70;;;;;;5039306;28;20429;-75
2023/06/03 03:18:01;;;;;;;4.38;2.70;;;13.60;70.70;;;;;;5048249;28;20436;-76
2023/06/03 03:20:29;;;;;;;3.67;2.53;;;13.50;70.50;;;;;;5047939;28;20440;-74
2023/06/03 03:22:56;;;;;;;4.13;2.57;;;13.50;70.70;;;;;;5047965;28;21281;-75
2023/06/03 03:25:24;;;;;;;3.40;2.67;;;13.50;70.60;;;;;;5047309;28;20948;-74
2023/06/03 03:27:51;;;;;;;3.70;2.83;;;13.50;70.50;;;;;;5049370;28;20420;-75
2023/06/03 03:30:18;;;;;;;5.18;3.10;;;13.50;70.70;;;;;;5040230;28;20440;-75
2023/06/03 03:32:45;;;;;;;4.50;2.95;;;13.40;70.00;;;;;;5048626;28;20428;-75
2023/06/03 03:35:16;;;;;;;3.30;2.58;;;13.40;69.60;;;;;;5048533;28;20899;-76
2023/06/03 03:37:44;;;;;;;4.25;2.72;;;13.40;69.00;;;;;;5041875;28;20936;-75
2023/06/03 03:40:18;;;;;;;4.20;2.42;;;13.40;69.20;;;;;;5045620;28;20417;-77
2023/06/03 03:42:50;;;;;;;4.05;2.50;;;13.40;69.40;;;;;;5049500;28;20429;-74
2023/06/03 03:45:18;;;;;;;3.75;2.58;;;13.40;68.40;;;;;;5047961;28;20433;-76
2023/06/03 03:47:48;;;;;;;3.42;2.50;;;13.40;68.40;;;;;;5048380;28;20444;-76
2023/06/03 03:50:35;;;;;;;4.35;2.60;;;13.40;67.70;;;;;;5046402;28;21049;-74
2023/06/03 03:53:05;;;;;;;4.45;2.70;;;13.40;67.00;;;;;;5048551;28;20953;-76
2023/06/03 03:55:33;;;;;;;3.80;2.90;;;13.40;67.30;;;;;;5046915;28;20456;-75
2023/06/03 03:58:04;;;;;;;3.90;2.47;;;13.40;66.90;;;;;;5048197;28;20421;-75
2023/06/03 04:00:33;;;;;;;3.80;2.20;;;13.40;66.60;;;;;;5064532;23;20781;-70
2023/06/03 04:03:00;;;;;;;2.63;2.30;;;13.40;66.60;;;;;;5071041;28;20954;-71
2023/06/03 04:05:27;;;;;;;3.05;2.10;;;13.40;66.40;;;;;;5068383;28;20411;-70
2023/06/03 04:07:54;;;;;;;3.70;2.53;;;13.40;65.40;;;;;;5055200;28;20415;-73
2023/06/03 04:10:22;;;;;;;4.43;2.50;;;13.40;64.60;;;;;;5067982;28;20430;-71
2023/06/03 04:12:48;;;;;;;3.47;2.60;;;13.40;65.80;;;;;;5068146;28;20902;-69
2023/06/03 04:15:24;;;;;;;2.97;2.10;;;13.40;65.70;;;;;;5070191;28;20432;-72
2023/06/03 04:17:51;;;;;;;3.72;2.40;;;13.40;64.20;;;;;;5063198;28;20923;-72
2023/06/03 04:20:40;;;;;;;2.80;2.40;;;13.40;64.50;;;;;;5067692;28;20477;-71
2023/06/03 04:23:14;;;;;;;4.32;2.50;;;13.40;64.40;;;;;;5068643;28;20416;-72
2023/06/03 04:25:43;;;;;;;3.28;2.40;;;13.40;64.30;;;;;;5067221;28;20418;-71
2023/06/03 04:28:10;;;;;;;3.47;1.85;;;13.40;63.20;;;;;;5068322;28;20423;-70
2023/06/03 04:30:38;;;;;;;2.45;1.90;;;13.40;63.80;;;;;;5068438;28;20435;-72
2023/06/03 04:33:06;;;;;;;2.80;2.00;;;13.40;64.00;;;;;;5071704;28;21046;-71
2023/06/03 04:35:33;;;;;;;3.80;2.10;;;13.40;64.30;;;;;;5071374;28;20411;-72
2023/06/03 04:38:00;;;;;;;3.38;1.90;;;13.40;63.70;;;;;;5071616;28;20408;-70
2023/06/03 04:40:27;;;;;;;2.78;1.98;;;13.40;62.20;;;;;;5070836;28;20754;-72
2023/06/03 04:42:54;;;;;;;4.50;1.70;;;13.50;62.60;;;;;;5071737;28;20901;-70
2023/06/03 04:45:23;;;;;;;2.90;1.80;;;13.50;62.00;;;;;;5073132;28;20431;-72
2023/06/03 04:47:52;;;;;;;2.85;2.00;;;13.50;62.70;;;;;;5071263;28;20509;-71
2023/06/03 04:50:20;;;;;;;3.00;1.90;;;13.50;62.00;;;;;;5070537;28;20506;-71
2023/06/03 04:52:48;;;;;;;3.20;2.05;;;13.50;61.20;;;;;;5071226;28;20422;-71
2023/06/03 04:55:14;;;;;;;3.42;1.90;;;13.50;61.40;;;;;;5065346;28;20438;-71
2023/06/03 04:57:45;;;;;;;3.45;1.77;;;13.60;61.90;;;;;;5054149;28;20413;-71
2023/06/03 05:00:16;;;;;;;2.42;1.75;;;13.60;61.20;;;;;;5073887;28;20890;-70
2023/06/03 05:02:44;;;;;;;2.90;1.80;;;13.60;60.60;;;;;;5056686;28;20465;-71
2023/06/03 05:05:12;;;;;;;3.30;1.92;;;13.60;59.40;;;;;;5071114;28;20412;-71
2023/06/03 05:07:39;;;;;;;4.40;2.03;;;13.60;58.60;;;;;;5070983;28;20419;-71
2023/06/03 05:10:07;;;;;;;3.10;1.90;;;13.70;58.60;;;;;;5061170;28;20471;-71
2023/06/03 05:12:34;;;;;;;4.78;1.70;;;13.70;57.30;;;;;;5066125;28;20415;-71
2023/06/03 05:15:01;;;;;;;2.93;2.00;;;13.70;56.70;;;;;;5074270;28;20860;-71
2023/06/03 05:17:27;;;;;;;2.70;1.50;;;13.70;57.30;;;;;;5069010;28;20499;-71
2023/06/03 05:19:54;;;;;;;2.90;1.52;;;13.80;57.50;;;;;;5060648;28;20511;-70
2023/06/03 05:22:22;;;;;;;2.50;1.50;;;13.80;56.30;;;;;;5069982;28;20733;-71
2023/06/03 05:24:49;;;;;;;4.68;1.70;;;13.80;55.20;;;;;;5070447;28;20438;-71
2023/06/03 05:27:16;;;;;;;3.13;1.70;;;13.80;53.50;;;;;;5071136;28;20481;-72
2023/06/03 05:29:42;;;;;;;4.28;1.60;;;13.90;54.00;;;;;;5066452;28;20915;-72
2023/06/03 05:32:09;;;;;;;3.55;1.38;;;13.90;52.80;;;;;;5068989;28;20524;-71
2023/06/03 05:34:36;;;;;;;4.82;1.42;;;13.90;50.70;;;;;;5070746;28;20428;-72
2023/06/03 05:37:03;;;;;;;2.83;1.40;;;14.00;50.10;;;;;;5070343;28;20422;-71
2023/06/03 05:39:31;;;;;;;2.63;1.38;;;14.00;50.80;;;;;;5069591;28;20416;-71
2023/06/03 05:41:58;;;;;;;2.10;1.40;;;14.00;50.20;;;;;;5068661;28;20439;-72
2023/06/03 05:44:25;;;;;;;2.10;1.30;;;14.10;50.10;;;;;;5063213;28;20430;-72
2023/06/03 05:46:51;;;;;;;3.00;1.30;;;14.10;51.20;;;;;;5071112;28;20446;-72
2023/06/03 05:49:20;;;;;;;2.65;1.20;;;14.20;48.50;;;;;;5075511;28;20449;-72
2023/06/03 05:51:46;;;;;;;3.65;1.50;;;14.20;47.60;;;;;;5058757;28;20496;-72
2023/06/03 05:54:14;;;;;;;4.28;1.42;;;14.30;48.00;;;;;;5063427;28;20431;-70
2023/06/03 05:56:42;;;;;;;3.20;1.63;;;14.30;48.80;;;;;;5070755;28;20411;-71
2023/06/03 05:59:09;;;;;;;2.08;1.35;;;14.40;49.00;;;;;;5069999;28;20439;-71
2023/06/03 06:01:35;;;;;;;2.45;1.30;;;14.40;48.70;;;;;;5069853;28;20906;-70
2023/06/03 06:04:02;;;;;;;2.30;1.50;;;14.40;48.60;;;;;;5069761;28;20898;-70
2023/06/03 06:06:29;;;;;;;3.00;1.45;;;14.50;48.20;;;;;;5070274;28;20424;-72
2023/06/03 06:08:56;;;;;;;1.38;1.10;;;14.50;48.10;;;;;;5062715;28;20417;-72
2023/06/03 06:11:23;;;;;;;2.30;1.20;;;14.50;48.50;;;;;;5061373;28;21016;-71
2023/06/03 06:13:51;;;;;;;2.42;1.50;;;14.60;47.70;;;;;;5076371;28;20419;-71
2023/06/03 06:16:17;;;;;;;4.00;1.60;;;14.60;47.80;;;;;;5064212;28;20429;-73
2023/06/03 06:18:44;;;;;;;2.80;1.20;;;14.70;47.30;;;;;;5056704;28;20414;-70
2023/06/03 06:21:11;;;;;;;2.95;1.50;;;14.80;48.60;;;;;;5070216;28;20428;-71
2023/06/03 06:23:38;;;;;;;2.97;1.30;;;14.80;46.80;;;;;;5057325;28;20410;-71
2023/06/03 06:26:04;;;;;;;2.45;1.50;;;14.90;46.20;;;;;;5068637;28;20916;-71
2023/06/03 06:28:32;;;;;;;2.30;1.30;;;14.90;45.80;;;;;;5058251;28;20417;-70
2023/06/03 06:31:04;;;;;;;2.80;1.45;;;15.00;45.90;;;;;;5065577;28;20422;-71
2023/06/03 06:33:31;;;;;;;2.20;1.20;;;15.00;45.10;;;;;;5065561;28;20431;-71
2023/06/03 06:35:58;;;;;;;2.90;1.20;;;15.10;45.30;;;;;;5069289;28;20735;-71
2023/06/03 06:38:24;;;;;;;2.40;1.00;;;15.20;44.80;;;;;;5065366;28;20427;-70
2023/06/03 06:40:51;;;;;;;2.00;1.20;;;15.30;44.40;;;;;;5067793;28;20418;-71
2023/06/03 06:43:21;;;;;;;3.28;1.40;;;15.40;44.40;;;;;;5069214;28;20958;-69
2023/06/03 06:45:48;;;;;;;2.30;1.35;;;15.50;43.90;;;;;;5064501;28;20416;-71
2023/06/03 06:48:16;;;;;;;2.40;1.10;;;15.50;44.20;;;;;;5064920;28;20566;-70
2023/06/03 06:50:48;;;;;;;2.13;1.20;;;15.60;44.10;;;;;;5053684;28;20420;-69
2023/06/03 06:53:18;;;;;;;2.35;1.40;;;15.70;44.50;;;;;;5060476;28;20469;-72
2023/06/03 06:55:49;;;;;;;2.60;1.30;;;15.80;43.60;;;;;;5061633;28;20527;-70
2023/06/03 06:58:16;;;;;;;2.40;1.30;;;15.90;44.20;;;;;;5072363;28;20447;-72
2023/06/03 07:00:43;;;;;;;2.00;1.40;;;16.00;43.90;;;;;;5062002;28;20754;-72
2023/06/03 07:03:10;;;;;;;2.90;1.40;;;16.20;43.20;;;;;;5068307;28;20420;-73
2023/06/03 07:05:38;;;;;;;3.72;1.42;;;16.30;43.20;;;;;;5065190;28;20519;-70
2023/06/03 07:08:06;;;;;;;2.38;1.00;;;16.50;43.20;;;;;;5058563;28;20416;-70
2023/06/03 07:10:33;;;;;;;2.97;1.50;;;16.70;42.00;;;;;;5067981;28;20423;-70
2023/06/03 07:13:00;;;;;;;3.97;1.33;;;16.80;41.20;;;;;;5062861;28;20480;-71
2023/06/03 07:15:28;;;;;;;2.20;1.40;;;16.90;41.40;;;;;;5068410;28;20904;-70
2023/06/03 07:17:56;;;;;;;3.10;1.42;;;16.90;41.80;;;;;;5068038;28;20435;-71
2023/06/03 07:20:30;;;;;;;1.70;1.30;;;17.10;41.00;;;;;;5067442;28;20902;-71
2023/06/03 07:22:59;;;;;;;2.70;1.30;;;17.30;40.90;;;;;;5059935;28;20433;-71
2023/06/03 07:25:36;;;;;;;3.10;1.40;;;17.40;40.80;;;;;;5075451;28;20540;-71
2023/06/03 07:28:04;;;;;;;2.10;1.40;;;17.60;40.90;;;;;;5072696;28;20436;-71
2023/06/03 07:30:35;;;;;;;3.67;2.00;;;17.70;40.50;;;;;;5060205;28;20468;-72
2023/06/03 07:33:02;;;;;;;2.17;1.10;;;17.90;39.90;;;;;;5068220;28;20473;-69
2023/06/03 07:35:30;;;;;;;3.10;1.48;;;18.10;39.50;;;;;;5068452;28;20428;-69
2023/06/03 07:37:58;;;;;;;3.03;1.40;;;18.20;39.40;;;;;;5067811;28;20849;-70
2023/06/03 07:40:36;;;;;;;2.72;1.40;;;18.30;39.80;;;;;;5062464;28;20440;-70
2023/06/03 07:43:03;;;;;;;3.10;1.40;;;18.50;39.50;;;;;;5062587;28;20725;-70
2023/06/03 07:45:30;;;;;;;3.17;1.30;;;18.70;38.70;;;;;;5067946;28;20414;-68
2023/06/03 07:47:57;;;;;;;2.53;1.20;;;19.00;38.80;;;;;;5067864;28;20416;-70
2023/06/03 07:50:26;;;;;;;2.93;1.20;;;19.10;38.40;;;;;;5067188;28;20525;-70
2023/06/03 07:53:01;;;;;;;2.73;1.17;;;19.30;37.30;;;;;;5068101;28;20415;-69
2023/06/03 07:55:30;;;;;;;2.35;1.17;;;19.40;36.90;;;;;;5068334;28;20857;-69
2023/06/03 07:57:57;;;;;;;1.55;0.93;;;19.50;37.30;;;;;;5073142;28;20948;-68
2023/06/03 08:00:24;;;;;;;3.17;1.50;;;19.80;37.80;;;;;;5067025;28;20411;-67
2023/06/03 08:02:51;;;;;;;2.83;1.40;;;20.00;37.20;;;;;;5067985;28;20882;-68
2023/06/03 08:05:33;;;;;;;1.63;1.20;;;20.20;35.90;;;;;;5070420;28;20917;-68
2023/06/03 08:08:01;;;;;;;3.30;1.50;;;20.30;35.60;;;;;;5055751;28;20428;-67
2023/06/03 08:10:28;;;;;;;2.28;1.20;;;20.50;35.80;;;;;;5068652;28;20434;-69
2023/06/03 08:12:55;;;;;;;3.80;1.50;;;20.60;35.70;;;;;;5076816;28;20431;-68
2023/06/03 08:15:27;;;;;;;2.70;1.40;;;20.80;35.40;;;;;;5076486;28;20433;-70
2023/06/03 08:17:55;;;;;;;4.50;1.40;;;21.00;35.10;;;;;;5072197;28;20439;-70
2023/06/03 08:20:26;;;;;;;2.42;1.38;;;21.10;35.30;;;;;;5062648;28;20424;-69
2023/06/03 08:22:54;;;;;;;2.10;1.30;;;21.40;34.80;;;;;;5071530;28;20420;-67
2023/06/03 08:25:23;;;;;;;3.40;1.75;;;21.50;35.60;;;;;;5070699;28;20438;-68
2023/06/03 08:27:50;;;;;;;2.30;1.30;;;21.80;34.20;;;;;;5063364;28;20431;-68
2023/06/03 08:30:20;;;;;;;4.53;1.30;;;22.00;34.40;;;;;;5064255;28;20411;-66
2023/06/03 08:32:47;;;;;;;2.15;1.33;;;22.10;32.70;;;;;;5071305;28;20411;-67
2023/06/03 08:35:15;;;;;;;2.90;1.35;;;22.10;32.20;;;;;;5071349;28;20430;-67
2023/06/03 08:37:42;;;;;;;2.10;1.17;;;22.00;32.10;;;;;;5071599;28;20559;-67
2023/06/03 08:40:11;;;;;;;2.10;1.20;;;21.80;32.30;;;;;;5069227;28;20522;-67
2023/06/03 08:42:44;;;;;;;3.60;1.70;;;21.80;32.60;;;;;;5066837;28;20911;-68
2023/06/03 08:45:12;;;;;;;2.63;1.20;;;21.80;33.20;;;;;;5070698;28;20499;-67
2023/06/03 08:48:05;;;;;;;3.22;1.40;;;21.80;32.60;;;;;;5062322;28;20433;-68
2023/06/03 08:50:34;;;;;;;3.28;1.42;;;22.00;32.70;;;;;;5061063;28;20408;-68
2023/06/03 08:53:04;;;;;;;2.00;1.30;;;22.20;32.30;;;;;;5070001;28;20416;-67
2023/06/03 08:55:31;;;;;;;3.30;1.50;;;22.30;31.70;;;;;;5063026;28;20432;-68
2023/06/03 08:58:08;;;;;;;2.80;1.40;;;22.30;32.40;;;;;;5071041;28;20854;-69
2023/06/03 09:00:35;;;;;;;2.45;1.20;;;22.60;32.80;;;;;;5071459;28;20430;-68
2023/06/03 09:03:04;;;;;;;3.50;1.50;;;22.70;31.40;;;;;;5065987;28;20427;-67
2023/06/03 09:05:33;;;;;;;2.53;1.30;;;22.70;31.10;;;;;;5067480;28;20412;-68
2023/06/03 09:08:00;;;;;;;2.70;1.50;;;22.80;32.00;;;;;;5069161;28;20420;-68
2023/06/03 09:10:27;;;;;;;2.85;1.40;;;23.00;31.40;;;;;;5055421;28;20783;-68
2023/06/03 09:12:55;;;;;;;1.60;1.30;;;23.20;31.50;;;;;;5065602;28;21055;-67
2023/06/03 09:15:24;;;;;;;3.65;1.33;;;23.50;31.40;;;;;;5057957;28;20524;-67
2023/06/03 09:17:51;;;;;;;2.10;1.50;;;23.60;29.90;;;;;;5069719;28;20411;-67
2023/06/03 09:20:18;;;;;;;4.65;1.90;;;23.60;29.60;;;;;;5069291;28;20514;-65
2023/06/03 09:22:46;;;;;;;3.30;1.70;;;23.30;29.50;;;;;;5062061;28;20422;-66
2023/06/03 09:25:13;;;;;;;2.92;1.40;;;23.30;29.60;;;;;;5063157;28;20916;-66
2023/06/03 09:27:41;;;;;;;3.70;1.60;;;23.30;30.00;;;;;;5070411;28;20411;-66
2023/06/03 09:30:09;;;;;;;5.28;3.53;;;23.50;30.20;;;;;;5060985;28;20425;-66
2023/06/03 09:32:38;;;;;;;3.58;1.90;;;23.70;29.60;;;;;;5066826;28;20417;-66
2023/06/03 09:35:06;;;;;;;2.13;1.70;;;23.70;29.30;;;;;;5069795;28;20428;-67
2023/06/03 09:37:33;;;;;;;2.85;1.70;;;23.80;29.00;;;;;;5069450;28;20422;-66
2023/06/03 09:40:00;;;;;;;2.00;1.60;;;23.90;28.90;;;;;;5073002;28;20416;-67
2023/06/03 09:42:41;;;;;;;3.95;1.40;;;24.00;28.80;;;;;;5059392;28;20418;-67
2023/06/03 09:45:22;;;;;;;2.08;1.42;;;24.00;28.40;;;;;;5074669;28;20537;-67
2023/06/03 09:47:50;;;;;;;2.88;1.70;;;23.80;28.70;;;;;;5066416;28;20456;-66
2023/06/03 09:50:17;;;;;;;2.50;1.60;;;24.00;29.00;;;;;;5063440;28;20781;-67
2023/06/03 09:52:43;;;;;;;2.17;1.70;;;24.10;29.00;;;;;;5062575;28;20411;-67
2023/06/03 09:55:11;;;;;;;1.90;1.50;;;24.40;29.00;;;;;;5065354;28;20503;-67
2023/06/03 09:57:38;;;;;;;2.97;1.85;;;24.60;29.00;;;;;;5069446;28;20465;-67
2023/06/03 10:00:10;;;;;;;3.70;1.77;;;24.90;28.40;;;;;;5093513;22;20409;-66
2023/06/03 10:02:38;;;;;;;3.67;1.80;;;25.10;27.70;;;;;;5063090;28;20438;-74
2023/06/03 10:05:26;;;;;;;2.13;1.75;;;25.20;27.20;;;;;;5066696;28;20423;-74
2023/06/03 10:07:53;;;;;;;3.42;1.60;;;25.30;27.10;;;;;;5062098;28;20499;-74
2023/06/03 10:10:20;;;;;;;3.22;1.60;;;25.40;26.90;;;;;;5061237;28;20415;-74
2023/06/03 10:12:48;;;;;;;3.85;1.80;;;25.50;26.60;;;;;;5063021;28;20431;-74
2023/06/03 10:15:33;;;;;;;2.90;1.77;;;25.60;26.70;;;;;;5055271;28;20419;-74
2023/06/03 10:18:00;;;;;;;2.70;1.50;;;25.70;27.30;;;;;;5050520;28;20429;-73
2023/06/03 10:20:36;;;;;;;2.70;1.80;;;25.90;26.60;;;;;;5055981;28;20863;-73
2023/06/03 10:23:04;;;;;;;2.20;1.80;;;25.90;26.40;;;;;;5051968;28;20470;-73
2023/06/03 10:25:34;;;;;;;2.90;1.80;;;26.00;26.00;;;;;;5050096;28;20749;-73
2023/06/03 10:28:01;;;;;;;2.13;1.50;;;26.20;25.60;;;;;;5050913;28;20425;-73
2023/06/03 10:30:30;;;;;;;3.00;1.60;;;26.20;25.90;;;;;;5053257;28;20868;-73
2023/06/03 10:33:02;;;;;;;2.40;1.50;;;26.30;26.20;;;;;;5052441;28;20524;-72
2023/06/03 10:35:31;;;;;;;3.00;1.90;;;26.40;26.10;;;;;;5062730;28;20809;-73
2023/06/03 10:38:00;;;;;;;2.33;1.40;;;26.50;26.20;;;;;;5052773;28;20444;-73
2023/06/03 10:40:28;;;;;;;3.15;1.50;;;26.60;25.70;;;;;;5055369;28;20517;-73
2023/06/03 10:42:56;;;;;;;2.55;1.40;;;26.70;25.30;;;;;;5052592;28;20440;-75
2023/06/03 10:45:24;;;;;;;2.88;1.50;;;26.80;25.50;;;;;;5053154;28;20419;-76
2023/06/03 10:47:54;;;;;;;2.92;1.70;;;26.90;25.30;;;;;;5054691;28;20431;-76
2023/06/03 10:50:31;;;;;;;1.80;1.60;;;27.00;24.40;;;;;;5061023;28;20498;-74
2023/06/03 10:53:13;;;;;;;2.17;1.50;;;26.90;24.90;;;;;;5063869;28;20495;-75
2023/06/03 10:56:02;;;;;;;1.40;1.30;;;27.00;25.20;;;;;;5051473;28;20429;-76
2023/06/03 10:58:32;;;;;;;2.50;1.70;;;27.20;25.30;;;;;;5048057;28;21398;-76
2023/06/03 11:01:00;;;;;;;2.28;1.50;;;27.20;24.80;;;;;;5050328;28;20766;-73
2023/06/03 11:03:28;;;;;;;2.50;1.57;;;27.00;24.80;;;;;;5063640;28;20420;-73
2023/06/03 11:06:33;;;;;;;1.73;1.40;;;27.10;25.00;;;;;;5049206;28;20423;-73
2023/06/03 11:09:05;;;;;;;2.35;1.33;;;26.80;24.80;;;;;;5052359;28;20433;-76
2023/06/03 11:12:13;;;;;;;2.10;1.65;;;26.60;24.50;;;;;;5050147;28;20477;-76
2023/06/03 11:14:56;;;;;;;2.60;1.38;;;26.60;24.70;;;;;;5045644;28;20823;-76
2023/06/03 11:17:27;;;;;;;3.33;1.50;;;26.70;24.90;;;;;;5057696;28;20423;-73
2023/06/03 11:19:59;;;;;;;1.60;1.38;;;26.90;24.60;;;;;;5054105;28;20443;-73
2023/06/03 11:22:55;;;;;;;1.53;1.30;;;27.10;24.80;;;;;;5063168;28;20439;-74
2023/06/03 11:25:31;;;;;;;2.72;1.30;;;27.20;24.90;;;;;;5052693;28;20427;-75
2023/06/03 11:28:34;;;;;;;2.85;1.48;;;27.40;24.70;;;;;;5056724;28;20827;-75
2023/06/03 11:31:03;;;;;;;2.20;1.30;;;27.50;24.10;;;;;;5048444;28;20457;-74
2023/06/03 11:33:30;;;;;;;3.00;1.60;;;27.50;24.00;;;;;;5064242;28;20447;-75
2023/06/03 11:35:56;;;;;;;2.33;1.45;;;27.50;24.50;;;;;;5052608;28;20452;-74
2023/06/03 11:38:57;;;;;;;1.88;1.30;;;27.20;24.20;;;;;;5052441;28;20432;-74
2023/06/03 11:41:57;;;;;;;3.88;1.70;;;27.20;24.30;;;;;;5061345;28;20430;-73
2023/06/03 11:44:25;;;;;;;2.03;1.45;;;27.60;24.60;;;;;;5057510;28;20456;-76
2023/06/03 11:46:53;;;;;;;2.15;1.73;;;28.10;24.60;;;;;;5057400;28;20442;-74
2023/06/03 11:49:21;;;;;;;2.30;1.30;;;28.60;24.60;;;;;;5053717;28;20871;-73
2023/06/03 11:51:53;;;;;;;2.13;1.50;;;29.20;24.10;;;;;;5059423;28;20443;-74
2023/06/03 11:54:21;;;;;;;1.80;1.50;;;29.40;23.90;;;;;;5050895;28;20421;-74
2023/06/03 11:56:48;;;;;;;1.80;1.20;;;29.50;23.90;;;;;;5054536;28;20546;-74
2023/06/03 11:59:18;;;;;;;2.53;1.57;;;29.50;23.40;;;;;;5065014;28;20431;-76
2023/06/03 12:02:00;;;;;;;2.47;1.45;;;29.50;22.90;;;;;;5065244;28;20798;-74
2023/06/03 12:04:27;;;;;;;1.95;1.45;;;29.40;23.20;;;;;;5062684;28;20421;-74
2023/06/03 12:06:54;;;;;;;2.40;1.30;;;29.40;22.90;;;;;;5056829;28;20431;-76
2023/06/03 12:09:22;;;;;;;2.65;1.90;;;29.50;23.30;;;;;;5058427;28;20442;-74
2023/06/03 12:11:49;;;;;;;1.90;1.48;;;29.70;23.30;;;;;;5057252;28;20431;-74
2023/06/03 12:14:27;;;;;;;2.25;1.40;;;30.00;22.80;;;;;;5057563;28;20544;-74
2023/06/03 12:16:55;;;;;;;1.60;1.25;;;30.40;22.90;;;;;;5066968;28;20478;-76
2023/06/03 12:19:23;;;;;;;2.95;1.60;;;30.60;22.30;;;;;;5067528;28;20601;-74
2023/06/03 12:21:58;;;;;;;2.25;1.40;;;30.70;22.20;;;;;;5058976;28;20425;-74
2023/06/03 12:24:30;;;;;;;2.10;1.40;;;30.80;22.30;;;;;;5064721;28;20456;-74
2023/06/03 12:26:57;;;;;;;3.37;1.60;;;30.80;21.90;;;;;;5054000;28;20416;-74
2023/06/03 12:29:24;;;;;;;1.80;1.45;;;30.70;22.10;;;;;;5056643;28;20432;-73
2023/06/03 12:31:58;;;;;;;2.50;1.50;;;30.70;21.60;;;;;;5054374;28;20513;-76
2023/06/03 12:34:34;;;;;;;4.00;1.70;;;30.60;22.00;;;;;;5066752;28;20811;-75
2023/06/03 12:37:02;;;;;;;2.30;1.35;;;30.60;21.50;;;;;;5056007;28;20786;-75
2023/06/03 12:39:47;;;;;;;1.80;1.30;;;30.60;21.70;;;;;;5057409;28;20423;-75
2023/06/03 12:42:15;;;;;;;2.47;1.30;;;30.70;21.70;;;;;;5066482;28;20460;-75
2023/06/03 12:44:48;;;;;;;1.98;1.20;;;31.00;21.60;;;;;;5061640;28;20957;-75
2023/06/03 12:47:16;;;;;;;1.60;1.02;;;31.30;21.20;;;;;;5061000;28;20430;-76
2023/06/03 12:49:46;;;;;;;1.40;1.20;;;31.90;21.20;;;;;;5051599;28;20710;-75
2023/06/03 12:52:15;;;;;;;3.08;1.40;;;32.50;20.40;;;;;;5056922;28;20754;-75
2023/06/03 12:54:44;;;;;;;1.83;1.43;;;33.00;20.70;;;;;;5062130;28;20423;-75
2023/06/03 12:57:11;;;;;;;2.60;1.30;;;33.60;20.40;;;;;;5062358;28;20511;-76
2023/06/03 12:59:57;;;;;;;3.08;1.50;;;34.20;20.30;;;;;;5062307;28;20419;-77